Time;durP1;ratioP1;P1;durP2;ratioP2;P2;SDS_P1;SDS_P2;PMS_P1;PMS_P2;Temp;Humidity;BMP_temperature;BMP_pressure;BME280_temperature;BME280_humidity;BME280_pressure;Samples;Min_cycle;Max_cycle;Signal;HPM_P1;HPM_P2
2021/12/03 00:00:06;;;;;;;4.55;2.78;;;;;;;-144.99;100.00;57660.31;346555;28;4734;-65
2021/12/03 00:00:24;;;;;;;5.43;2.90;;;;;;;-144.99;100.00;57660.31;346052;28;1161;-65
2021/12/03 00:00:40;;;;;;;5.22;3.15;;;;;;;-144.99;100.00;57660.31;346203;28;1074;-64
2021/12/03 00:01:17;;;;;;;5.25;3.08;;;;;;;-144.99;100.00;57660.31;346160;28;1333;-65
2021/12/03 00:01:32;;;;;;;7.78;3.00;;;;;;;-144.99;100.00;57660.31;345583;28;1272;-64
2021/12/03 00:01:44;;;;;;;5.88;3.03;;;;;;;-144.99;100.00;57660.31;347010;28;1749;-65
2021/12/03 00:01:56;;;;;;;5.88;3.13;;;;;;;-144.99;100.00;57660.31;345584;28;2221;-64
2021/12/03 00:02:08;;;;;;;6.35;3.20;;;;;;;-144.99;100.00;57660.31;347531;28;2709;-64
2021/12/03 00:02:21;;;;;;;5.07;3.10;;;;;;;-144.99;100.00;57660.31;347625;28;1656;-65
2021/12/03 00:02:33;;;;;;;4.65;3.13;;;;;;;-144.99;100.00;57660.31;347637;28;1180;-64
2021/12/03 00:02:45;;;;;;;4.15;3.03;;;;;;;-144.99;100.00;57660.31;347864;28;1049;-65
2021/12/03 00:02:57;;;;;;;4.30;3.13;;;;;;;-144.99;100.00;57660.31;347324;28;2050;-64
2021/12/03 00:03:11;;;;;;;5.28;3.30;;;;;;;-144.99;100.00;57660.31;347250;28;1920;-64
2021/12/03 00:03:24;;;;;;;6.30;3.45;;;;;;;-144.99;100.00;57660.31;347774;28;1009;-65
2021/12/03 00:03:37;;;;;;;6.53;3.13;;;;;;;-144.99;100.00;57660.31;348104;28;1280;-65
2021/12/03 00:03:51;;;;;;;6.00;2.72;;;;;;;-144.99;100.00;57660.31;348096;28;1103;-65
2021/12/03 00:04:04;;;;;;;4.68;2.70;;;;;;;-144.99;100.00;57660.31;346661;28;2388;-65
2021/12/03 00:04:16;;;;;;;4.55;3.08;;;;;;;-144.99;100.00;57660.31;347228;28;1246;-64
2021/12/03 00:04:28;;;;;;;6.00;3.30;;;;;;;-144.99;100.00;57660.31;347714;28;1221;-64
2021/12/03 00:04:40;;;;;;;6.45;3.35;;;;;;;-144.99;100.00;57660.31;347687;28;1009;-64
2021/12/03 00:04:52;;;;;;;6.25;3.08;;;;;;;-144.99;100.00;57660.31;347915;28;1286;-64
2021/12/03 00:05:04;;;;;;;5.15;3.00;;;;;;;-144.99;100.00;57660.31;346529;28;2176;-65
2021/12/03 00:05:22;;;;;;;5.28;2.88;;;;;;;-144.99;100.00;57660.31;346388;28;1049;-65
2021/12/03 00:05:34;;;;;;;4.72;2.70;;;;;;;-144.99;100.00;57660.31;347473;28;2169;-64
2021/12/03 00:05:46;;;;;;;4.20;2.80;;;;;;;-144.99;100.00;57660.31;346425;28;1221;-65
2021/12/03 00:05:58;;;;;;;4.50;2.80;;;;;;;-144.99;100.00;57660.31;346670;28;1375;-65
2021/12/03 00:06:11;;;;;;;4.97;2.75;;;;;;;-144.99;100.00;57660.31;346801;28;1700;-63
2021/12/03 00:06:23;;;;;;;4.53;2.70;;;;;;;-144.99;100.00;57660.31;347777;28;2047;-64
2021/12/03 00:06:37;;;;;;;3.97;2.63;;;;;;;-144.99;100.00;57660.31;347845;28;1311;-65
2021/12/03 00:06:49;;;;;;;4.45;2.78;;;;;;;-144.99;100.00;57660.31;347739;28;1451;-65
2021/12/03 00:07:01;;;;;;;5.75;2.90;;;;;;;-144.99;100.00;57660.31;346968;28;1256;-64
2021/12/03 00:07:13;;;;;;;6.80;3.10;;;;;;;-144.99;100.00;57660.31;347321;28;2097;-64
2021/12/03 00:07:25;;;;;;;8.68;3.10;;;;;;;-144.99;100.00;57660.31;347757;28;1047;-65
2021/12/03 00:07:40;;;;;;;7.82;2.85;;;;;;;-144.99;100.00;57660.31;347958;28;1084;-64
2021/12/03 00:07:52;;;;;;;8.13;2.95;;;;;;;-144.99;100.00;57660.31;347890;28;1049;-64
2021/12/03 00:08:05;;;;;;;6.82;2.97;;;;;;;-144.99;100.00;57660.31;347723;28;1918;-65
2021/12/03 00:08:18;;;;;;;6.47;2.92;;;;;;;-144.99;100.00;57660.31;347802;28;1081;-64
2021/12/03 00:08:32;;;;;;;6.20;2.80;;;;;;;-144.99;100.00;57660.31;347886;28;1026;-65
2021/12/03 00:08:44;;;;;;;5.88;2.85;;;;;;;-144.99;100.00;57660.31;347196;28;2487;-64
2021/12/03 00:08:56;;;;;;;5.32;2.90;;;;;;;-144.99;100.00;57660.31;347106;28;2068;-65
2021/12/03 00:09:08;;;;;;;5.40;2.88;;;;;;;-144.99;100.00;57660.31;347668;28;1074;-65
2021/12/03 00:09:20;;;;;;;5.25;3.00;;;;;;;-144.99;100.00;57660.31;347917;28;1077;-65
2021/12/03 00:09:35;;;;;;;6.00;3.00;;;;;;;-144.99;100.00;57660.31;346467;28;1078;-65
2021/12/03 00:09:47;;;;;;;6.18;2.97;;;;;;;-144.99;100.00;57660.31;346501;28;2267;-65
2021/12/03 00:09:59;;;;;;;6.15;2.80;;;;;;;-144.99;100.00;57660.31;347122;28;1211;-65
2021/12/03 00:10:14;;;;;;;5.72;2.63;;;;;;;-144.99;100.00;57660.31;347762;28;1201;-65
2021/12/03 00:10:26;;;;;;;6.82;2.83;;;;;;;-144.99;100.00;57660.31;346510;28;2024;-64
2021/12/03 00:10:39;;;;;;;7.05;2.90;;;;;;;-144.99;100.00;57660.31;346103;28;1347;-64
2021/12/03 00:10:57;;;;;;;6.82;2.78;;;;;;;-144.99;100.00;57660.31;346065;28;1041;-65
2021/12/03 00:11:11;;;;;;;4.68;2.72;;;;;;;-144.99;100.00;57660.31;346213;28;1213;-65
2021/12/03 00:11:24;;;;;;;4.57;2.80;;;;;;;-144.99;100.00;57660.31;346181;28;1085;-65
2021/12/03 00:11:36;;;;;;;6.00;2.83;;;;;;;-144.99;100.00;57660.31;346417;28;1062;-65
2021/12/03 00:11:48;;;;;;;6.07;2.72;;;;;;;-144.99;100.00;57660.31;346385;28;1082;-65
2021/12/03 00:12:01;;;;;;;5.60;2.65;;;;;;;-144.99;100.00;57660.31;346922;28;1583;-64
2021/12/03 00:12:13;;;;;;;4.95;2.60;;;;;;;-144.99;100.00;57660.31;347781;28;1104;-64
2021/12/03 00:12:25;;;;;;;4.75;2.60;;;;;;;-144.99;100.00;57660.31;347354;28;2420;-64
2021/12/03 00:12:38;;;;;;;4.30;2.50;;;;;;;-144.99;100.00;57660.31;347488;28;1113;-65
2021/12/03 00:12:50;;;;;;;4.10;2.53;;;;;;;-144.99;100.00;57660.31;347573;28;1013;-64
2021/12/03 00:13:04;;;;;;;4.80;2.67;;;;;;;-144.99;100.00;57660.31;347586;28;1676;-64
2021/12/03 00:13:18;;;;;;;5.93;2.80;;;;;;;-144.99;100.00;57660.31;347268;28;1362;-65
2021/12/03 00:13:32;;;;;;;6.10;2.95;;;;;;;-144.99;100.00;57660.31;347673;28;1109;-64
2021/12/03 00:13:45;;;;;;;5.32;2.95;;;;;;;-144.99;100.00;57660.31;347965;28;1038;-65
2021/12/03 00:13:57;;;;;;;4.93;2.80;;;;;;;-144.99;100.00;57660.31;347635;28;1585;-64
2021/12/03 00:14:09;;;;;;;5.75;2.97;;;;;;;-144.99;100.00;57660.31;347702;28;1098;-64
2021/12/03 00:14:21;;;;;;;6.13;2.85;;;;;;;-144.99;100.00;57660.31;347488;28;1085;-65
2021/12/03 00:14:34;;;;;;;4.97;2.78;;;;;;;-144.99;100.00;57660.31;347466;28;2378;-64
2021/12/03 00:14:46;;;;;;;5.05;2.97;;;;;;;-144.99;100.00;57660.31;347649;28;1303;-64
2021/12/03 00:14:58;;;;;;;6.03;3.10;;;;;;;-144.99;100.00;57660.31;347466;28;1642;-64
2021/12/03 00:15:11;;;;;;;6.63;3.15;;;;;;;-144.99;100.00;57660.31;347902;28;1100;-65
2021/12/03 00:15:25;;;;;;;7.38;3.28;;;;;;;-144.99;100.00;57660.31;347095;28;2485;-64
2021/12/03 00:15:37;;;;;;;6.40;2.83;;;;;;;-144.99;100.00;57660.31;347855;28;1304;-64
2021/12/03 00:15:51;;;;;;;6.47;2.65;;;;;;;-144.99;100.00;57660.31;347525;28;1054;-64
2021/12/03 00:16:04;;;;;;;7.78;3.05;;;;;;;-144.99;100.00;57660.31;347305;28;1700;-65
2021/12/03 00:16:17;;;;;;;7.47;3.10;;;;;;;-144.99;100.00;57660.31;347421;28;1321;-66
2021/12/03 00:16:29;;;;;;;7.00;2.92;;;;;;;-144.99;100.00;57660.31;347468;28;1054;-64
2021/12/03 00:16:42;;;;;;;5.90;2.92;;;;;;;-144.99;100.00;57660.31;346838;28;2678;-65
2021/12/03 00:16:54;;;;;;;4.70;3.08;;;;;;;-144.99;100.00;57660.31;346716;28;2213;-64
2021/12/03 00:17:06;;;;;;;4.85;2.92;;;;;;;-144.99;100.00;57660.31;345854;28;950;-64
2021/12/03 00:17:18;;;;;;;4.60;2.85;;;;;;;-144.99;100.00;57660.31;346052;28;2535;-64
2021/12/03 00:17:30;;;;;;;4.07;2.72;;;;;;;-144.99;100.00;57660.31;346285;28;1058;-65
2021/12/03 00:17:42;;;;;;;4.75;2.90;;;;;;;-144.99;100.00;57660.31;346035;28;1028;-65
2021/12/03 00:17:55;;;;;;;6.47;2.90;;;;;;;-144.99;100.00;57660.31;346226;28;1093;-65
2021/12/03 00:18:07;;;;;;;6.90;3.00;;;;;;;-144.99;100.00;57660.31;345858;28;2384;-65
2021/12/03 00:18:19;;;;;;;7.03;3.45;;;;;;;-144.99;100.00;57660.31;347397;28;1018;-66
2021/12/03 00:18:32;;;;;;;5.90;3.50;;;;;;;-144.99;100.00;57660.31;347383;28;1073;-64
2021/12/03 00:18:45;;;;;;;4.95;3.25;;;;;;;-144.99;100.00;57660.31;347442;28;1076;-66
2021/12/03 00:18:57;;;;;;;4.70;2.90;;;;;;;-144.99;100.00;57660.31;347210;28;1596;-65
2021/12/03 00:19:09;;;;;;;6.03;3.65;;;;;;;-144.99;100.00;57660.31;346699;28;2361;-65
2021/12/03 00:19:21;;;;;;;6.80;4.78;;;;;;;-144.99;100.00;57660.31;346492;28;2279;-64
2021/12/03 00:19:33;;;;;;;5.60;4.70;;;;;;;-144.99;100.00;57660.31;347613;28;1352;-64
2021/12/03 00:19:45;;;;;;;4.95;4.13;;;;;;;-144.99;100.00;57660.31;347191;28;2489;-65
2021/12/03 00:19:57;;;;;;;4.70;3.47;;;;;;;-144.99;100.00;57660.31;347588;28;1560;-65
2021/12/03 00:20:12;;;;;;;4.63;3.42;;;;;;;-144.99;100.00;57660.31;347846;28;1112;-64
2021/12/03 00:20:25;;;;;;;5.45;4.22;;;;;;;-144.99;100.00;57660.31;347722;28;1274;-64
2021/12/03 00:20:39;;;;;;;5.80;5.05;;;;;;;-144.99;100.00;57660.31;347827;28;1718;-63
2021/12/03 00:20:52;;;;;;;7.28;6.43;;;;;;;-144.99;100.00;57660.31;348031;28;790;-65
2021/12/03 00:21:07;;;;;;;8.88;7.90;;;;;;;-144.99;100.00;57660.31;347567;28;1544;-65
2021/12/03 00:21:20;;;;;;;9.07;8.02;;;;;;;-144.99;100.00;57660.31;347681;28;2195;-65
2021/12/03 00:21:33;;;;;;;7.57;6.22;;;;;;;-144.99;100.00;57660.31;347815;28;1311;-65
2021/12/03 00:21:45;;;;;;;6.47;4.47;;;;;;;-144.99;100.00;57660.31;347792;28;1101;-65
2021/12/03 00:21:57;;;;;;;6.28;3.33;;;;;;;-144.99;100.00;57660.31;347687;28;1641;-65
2021/12/03 00:22:09;;;;;;;5.57;3.20;;;;;;;-144.99;100.00;57660.31;347195;28;3021;-65
2021/12/03 00:22:21;;;;;;;5.60;4.32;;;;;;;-144.99;100.00;57660.31;347748;28;1175;-66
2021/12/03 00:22:33;;;;;;;8.90;8.00;;;;;;;-144.99;100.00;57660.31;347808;28;1153;-64
2021/12/03 00:22:48;;;;;;;8.60;7.80;;;;;;;-144.99;100.00;57660.31;347808;28;1093;-65
2021/12/03 00:23:01;;;;;;;5.43;4.25;;;;;;;-144.99;100.00;57660.31;347644;28;1586;-65
2021/12/03 00:23:13;;;;;;;6.55;3.97;;;;;;;-144.99;100.00;57660.31;346667;28;1925;-65
2021/12/03 00:23:27;;;;;;;7.00;3.78;;;;;;;-144.99;100.00;57660.31;347148;28;2171;-65
2021/12/03 00:23:39;;;;;;;5.88;3.20;;;;;;;-144.99;100.00;57660.31;347478;28;1283;-65
2021/12/03 00:23:52;;;;;;;6.97;3.63;;;;;;;-144.99;100.00;57660.31;347577;28;1292;-66
2021/12/03 00:24:04;;;;;;;6.95;3.67;;;;;;;-144.99;100.00;57660.31;347536;28;1635;-64
2021/12/03 00:24:16;;;;;;;5.63;3.67;;;;;;;-144.99;100.00;57660.31;347579;28;1053;-63
2021/12/03 00:24:28;;;;;;;4.93;3.13;;;;;;;-144.99;100.00;57660.31;347518;28;1108;-65
2021/12/03 00:24:40;;;;;;;5.70;3.58;;;;;;;-144.99;100.00;57660.31;347769;28;1300;-65
2021/12/03 00:24:52;;;;;;;6.30;5.22;;;;;;;-144.99;100.00;57660.31;347328;28;2484;-65
2021/12/03 00:25:05;;;;;;;6.60;5.90;;;;;;;-144.99;100.00;57660.31;347246;28;1913;-64
2021/12/03 00:25:17;;;;;;;5.82;5.22;;;;;;;-144.99;100.00;57660.31;347340;28;1081;-65
2021/12/03 00:25:29;;;;;;;4.75;3.85;;;;;;;-144.99;100.00;57660.31;347818;28;1113;-65
2021/12/03 00:25:41;;;;;;;5.15;2.97;;;;;;;-144.99;100.00;57660.31;347835;28;1089;-64
2021/12/03 00:26:00;;;;;;;5.10;2.75;;;;;;;-144.99;100.00;57660.31;346999;28;2544;-65
2021/12/03 00:26:12;;;;;;;4.25;3.00;;;;;;;-144.99;100.00;57660.31;346343;28;1252;-64
2021/12/03 00:26:24;;;;;;;5.53;4.18;;;;;;;-144.99;100.00;57660.31;346508;28;1324;-65
2021/12/03 00:26:37;;;;;;;8.57;6.97;;;;;;;-144.99;100.00;57660.31;346356;28;1493;-65
2021/12/03 00:26:49;;;;;;;9.50;7.72;;;;;;;-144.99;100.00;57660.31;346486;28;1055;-66
2021/12/03 00:27:02;;;;;;;7.78;5.80;;;;;;;-144.99;100.00;57660.31;347150;28;1599;-65
2021/12/03 00:27:14;;;;;;;5.93;5.07;;;;;;;-144.99;100.00;57660.31;347859;28;1071;-65
2021/12/03 00:27:26;;;;;;;6.93;6.22;;;;;;;-144.99;100.00;57660.31;347736;28;1058;-64
2021/12/03 00:27:39;;;;;;;6.97;6.18;;;;;;;-144.99;100.00;57660.31;347876;28;1061;-64
2021/12/03 00:27:51;;;;;;;6.68;5.22;;;;;;;-144.99;100.00;57660.31;347413;28;2583;-65
2021/12/03 00:28:05;;;;;;;6.10;4.53;;;;;;;-144.99;100.00;57660.31;347465;28;1834;-66
2021/12/03 00:28:17;;;;;;;5.22;4.05;;;;;;;-144.99;100.00;57660.31;347886;28;1372;-66
2021/12/03 00:28:30;;;;;;;3.85;3.03;;;;;;;-144.99;100.00;57660.31;347995;28;1178;-65
2021/12/03 00:28:43;;;;;;;4.40;3.63;;;;;;;-144.99;100.00;57660.31;347850;28;1278;-64
2021/12/03 00:28:55;;;;;;;6.03;4.13;;;;;;;-144.99;100.00;57660.31;347883;28;1164;-65
2021/12/03 00:29:07;;;;;;;6.97;5.13;;;;;;;-144.99;100.00;57660.31;346492;28;1081;-65
2021/12/03 00:29:19;;;;;;;6.93;5.63;;;;;;;-144.99;100.00;57660.31;346233;28;1240;-65
2021/12/03 00:29:31;;;;;;;6.57;5.53;;;;;;;-144.99;100.00;57660.31;347195;28;1858;-66
2021/12/03 00:29:43;;;;;;;7.68;5.45;;;;;;;-144.99;100.00;57660.31;347813;28;1133;-66
2021/12/03 00:29:56;;;;;;;7.70;5.45;;;;;;;-144.99;100.00;57660.31;346991;28;2440;-66
2021/12/03 00:30:11;;;;;;;6.93;5.03;;;;;;;-144.99;100.00;57660.31;347163;28;2118;-65
2021/12/03 00:30:24;;;;;;;6.78;3.92;;;;;;;-144.99;100.00;57660.31;346375;28;1269;-63
2021/12/03 00:30:37;;;;;;;7.03;3.20;;;;;;;-144.99;100.00;57660.31;346585;28;1303;-64
2021/12/03 00:30:49;;;;;;;6.45;2.90;;;;;;;-144.99;100.00;57660.31;346348;28;1229;-65
2021/12/03 00:31:03;;;;;;;6.13;3.08;;;;;;;-144.99;100.00;57660.31;347188;28;1498;-66
2021/12/03 00:31:15;;;;;;;6.97;3.30;;;;;;;-144.99;100.00;57660.31;347915;28;1306;-65
2021/12/03 00:31:28;;;;;;;5.72;2.98;;;;;;;-144.99;100.00;57660.31;347043;28;2598;-64
2021/12/03 00:31:41;;;;;;;5.20;2.75;;;;;;;-144.99;100.00;57660.31;346493;28;1101;-64
2021/12/03 00:31:53;;;;;;;5.50;2.70;;;;;;;-144.99;100.00;57660.31;346477;28;1050;-66
2021/12/03 00:32:06;;;;;;;5.18;2.83;;;;;;;-144.99;100.00;57660.31;347652;28;1647;-65
2021/12/03 00:32:18;;;;;;;4.97;2.60;;;;;;;-144.99;100.00;57660.31;347775;28;1277;-65
2021/12/03 00:32:30;;;;;;;4.40;2.50;;;;;;;-144.99;100.00;57660.31;347931;28;1070;-66
2021/12/03 00:32:44;;;;;;;3.65;2.50;;;;;;;-144.99;100.00;57660.31;347869;28;1160;-64
2021/12/03 00:32:56;;;;;;;4.72;2.60;;;;;;;-144.99;100.00;57660.31;347798;28;1647;-63
2021/12/03 00:33:08;;;;;;;5.20;2.60;;;;;;;-144.99;100.00;57660.31;346567;28;1077;-65
2021/12/03 00:33:20;;;;;;;6.07;2.80;;;;;;;-144.99;100.00;57660.31;346939;28;2068;-65
2021/12/03 00:33:35;;;;;;;5.05;2.78;;;;;;;-144.99;100.00;57660.31;346680;28;2505;-64
2021/12/03 00:33:47;;;;;;;3.45;2.50;;;;;;;-144.99;100.00;57660.31;346752;28;1046;-65
2021/12/03 00:33:59;;;;;;;3.50;2.60;;;;;;;-144.99;100.00;57660.31;347438;28;1957;-64
2021/12/03 00:34:11;;;;;;;3.78;2.55;;;;;;;-144.99;100.00;57660.31;347461;28;1359;-65
2021/12/03 00:34:26;;;;;;;3.72;2.30;;;;;;;-144.99;100.00;57660.31;347340;28;1189;-65
2021/12/03 00:34:38;;;;;;;4.15;2.42;;;;;;;-144.99;100.00;57660.31;347962;28;1075;-64
2021/12/03 00:34:50;;;;;;;4.60;2.72;;;;;;;-144.99;100.00;57660.31;347703;28;1042;-65
2021/12/03 00:35:04;;;;;;;4.32;2.90;;;;;;;-144.99;100.00;57660.31;348006;28;1248;-65
2021/12/03 00:35:17;;;;;;;4.70;2.88;;;;;;;-144.99;100.00;57660.31;347753;28;1373;-65
2021/12/03 00:35:29;;;;;;;6.03;2.70;;;;;;;-144.99;100.00;57660.31;347728;28;1145;-65
2021/12/03 00:35:42;;;;;;;6.00;2.70;;;;;;;-144.99;100.00;57660.31;347514;28;1264;-63
2021/12/03 00:35:54;;;;;;;5.68;2.70;;;;;;;-144.99;100.00;57660.31;347674;28;1497;-65
2021/12/03 00:36:10;;;;;;;5.57;2.60;;;;;;;-144.99;100.00;57660.31;346415;28;1085;-64
2021/12/03 00:36:23;;;;;;;6.47;2.75;;;;;;;-144.99;100.00;57660.31;346225;28;2618;-64
2021/12/03 00:36:35;;;;;;;5.60;2.70;;;;;;;-144.99;100.00;57660.31;347501;28;1069;-66
2021/12/03 00:36:47;;;;;;;4.32;2.70;;;;;;;-144.99;100.00;57660.31;347900;28;1097;-66
2021/12/03 00:37:00;;;;;;;4.18;2.67;;;;;;;-144.99;100.00;57660.31;347623;28;1582;-66
2021/12/03 00:37:12;;;;;;;3.72;2.70;;;;;;;-144.99;100.00;57660.31;347848;28;982;-65
2021/12/03 00:37:24;;;;;;;3.47;2.63;;;;;;;-144.99;100.00;57660.31;347902;28;1073;-64
2021/12/03 00:37:39;;;;;;;3.65;2.75;;;;;;;-144.99;100.00;57660.31;347739;28;1068;-64
2021/12/03 00:37:52;;;;;;;4.55;2.90;;;;;;;-144.99;100.00;57660.31;346164;28;1131;-65
2021/12/03 00:38:05;;;;;;;4.60;2.70;;;;;;;-144.99;100.00;57660.31;347460;28;1680;-63
2021/12/03 00:38:17;;;;;;;4.30;2.70;;;;;;;-144.99;100.00;57660.31;346316;28;1495;-65
2021/12/03 00:38:35;;;;;;;4.88;2.80;;;;;;;-144.99;100.00;57660.31;347431;28;2037;-65
2021/12/03 00:38:51;;;;;;;4.45;2.60;;;;;;;-144.99;100.00;57660.31;347738;28;1326;-65
2021/12/03 00:39:04;;;;;;;5.40;2.70;;;;;;;-144.99;100.00;57660.31;347292;28;1609;-65
2021/12/03 00:39:16;;;;;;;6.05;2.78;;;;;;;-144.99;100.00;57660.31;347942;28;2026;-65
2021/12/03 00:39:29;;;;;;;4.97;2.78;;;;;;;-144.99;100.00;57660.31;346905;28;2605;-64
2021/12/03 00:39:41;;;;;;;4.40;2.80;;;;;;;-144.99;100.00;57660.31;346780;28;2361;-64
2021/12/03 00:39:53;;;;;;;5.90;2.90;;;;;;;-144.99;100.00;57660.31;347798;28;1089;-64
2021/12/03 00:40:11;;;;;;;6.20;2.90;;;;;;;-144.99;100.00;57660.31;347844;28;2075;-65
2021/12/03 00:40:26;;;;;;;6.50;2.78;;;;;;;-144.99;100.00;57660.31;347850;28;994;-66
2021/12/03 00:40:39;;;;;;;7.94;2.84;;;;;;;-144.99;100.00;57660.31;347617;28;1042;-65
2021/12/03 00:40:51;;;;;;;7.00;2.70;;;;;;;-144.99;100.00;57660.31;347889;28;1107;-65
2021/12/03 00:41:07;;;;;;;7.07;2.65;;;;;;;-144.99;100.00;57660.31;347639;28;1710;-65
2021/12/03 00:41:21;;;;;;;6.63;2.88;;;;;;;-144.99;100.00;57660.31;347896;28;1177;-65
2021/12/03 00:41:40;;;;;;;6.43;2.95;;;;;;;-144.99;100.00;57660.31;347237;28;2845;-65
2021/12/03 00:41:59;;;;;;;6.57;2.95;;;;;;;-144.99;100.00;57660.31;347342;28;1033;-63
2021/12/03 00:42:15;;;;;;;6.50;3.00;;;;;;;-144.99;100.00;57660.31;346419;28;1176;-66
2021/12/03 00:42:29;;;;;;;5.38;2.67;;;;;;;-144.99;100.00;57660.31;346680;28;1344;-65
2021/12/03 00:42:41;;;;;;;4.60;2.55;;;;;;;-144.99;100.00;57660.31;346617;28;1053;-64
2021/12/03 00:42:53;;;;;;;4.30;2.70;;;;;;;-144.99;100.00;57660.31;346443;28;1106;-65
2021/12/03 00:43:07;;;;;;;4.47;2.80;;;;;;;-144.99;100.00;57660.31;347226;28;2377;-65
2021/12/03 00:43:20;;;;;;;4.78;2.78;;;;;;;-144.99;100.00;57660.31;346572;28;2596;-65
2021/12/03 00:43:32;;;;;;;4.90;2.95;;;;;;;-144.99;100.00;57660.31;347740;28;1276;-66
2021/12/03 00:43:46;;;;;;;4.63;2.97;;;;;;;-144.99;100.00;57660.31;348112;28;1010;-64
2021/12/03 00:43:58;;;;;;;5.13;2.90;;;;;;;-144.99;100.00;57660.31;347079;28;1230;-64
2021/12/03 00:44:10;;;;;;;5.90;2.90;;;;;;;-144.99;100.00;57660.31;346484;28;1081;-63
2021/12/03 00:44:24;;;;;;;5.55;3.00;;;;;;;-144.99;100.00;57660.31;346222;28;1102;-64
2021/12/03 00:44:36;;;;;;;5.63;3.15;;;;;;;-144.99;100.00;57660.31;346202;28;2576;-64
2021/12/03 00:44:55;;;;;;;5.93;3.03;;;;;;;-144.99;100.00;57660.31;347651;28;1058;-64
2021/12/03 00:45:09;;;;;;;7.28;2.88;;;;;;;-144.99;100.00;57660.31;346641;28;1245;-65
2021/12/03 00:45:21;;;;;;;7.03;2.90;;;;;;;-144.99;100.00;57660.31;346273;28;1105;-65
2021/12/03 00:45:34;;;;;;;5.32;2.63;;;;;;;-144.99;100.00;57660.31;346611;28;1321;-66
2021/12/03 00:45:47;;;;;;;4.72;2.63;;;;;;;-144.99;100.00;57660.31;346124;28;1278;-64
2021/12/03 00:46:05;;;;;;;5.55;2.83;;;;;;;-144.99;100.00;57660.31;346490;28;1634;-65
2021/12/03 00:46:19;;;;;;;4.55;2.75;;;;;;;-144.99;100.00;57660.31;347579;28;1058;-65
2021/12/03 00:46:31;;;;;;;5.43;2.83;;;;;;;-144.99;100.00;57660.31;347406;28;1276;-65
2021/12/03 00:46:43;;;;;;;6.05;2.92;;;;;;;-144.99;100.00;57660.31;346860;28;2526;-65
2021/12/03 00:46:58;;;;;;;6.25;3.00;;;;;;;-144.99;100.00;57660.31;347508;28;1230;-65
2021/12/03 00:47:11;;;;;;;6.32;3.00;;;;;;;-144.99;100.00;57660.31;346231;28;963;-65
2021/12/03 00:47:24;;;;;;;5.68;2.90;;;;;;;-144.99;100.00;57660.31;346158;28;1067;-66
2021/12/03 00:47:37;;;;;;;5.90;2.72;;;;;;;-144.99;100.00;57660.31;346295;28;1023;-66
2021/12/03 00:47:49;;;;;;;6.30;2.70;;;;;;;-144.99;100.00;57660.31;345992;28;1043;-64
2021/12/03 00:48:02;;;;;;;5.25;2.80;;;;;;;-144.99;100.00;57660.31;347187;28;1571;-65
2021/12/03 00:48:14;;;;;;;6.90;2.88;;;;;;;-144.99;100.00;57660.31;347754;28;1140;-65
2021/12/03 00:48:26;;;;;;;6.70;2.78;;;;;;;-144.99;100.00;57660.31;347909;28;1310;-64
2021/12/03 00:48:38;;;;;;;5.93;2.90;;;;;;;-144.99;100.00;57660.31;347882;28;1025;-64
2021/12/03 00:48:53;;;;;;;4.63;3.05;;;;;;;-144.99;100.00;57660.31;347693;28;1157;-64
2021/12/03 00:49:05;;;;;;;5.43;3.10;;;;;;;-144.99;100.00;57660.31;347790;28;1390;-65
2021/12/03 00:49:18;;;;;;;6.53;3.05;;;;;;;-144.99;100.00;57660.31;347688;28;1117;-66
2021/12/03 00:49:30;;;;;;;5.78;2.72;;;;;;;-144.99;100.00;57660.31;347589;28;2603;-66
2021/12/03 00:49:42;;;;;;;4.78;2.65;;;;;;;-144.99;100.00;57660.31;347669;28;1264;-65
2021/12/03 00:49:54;;;;;;;4.70;2.85;;;;;;;-144.99;100.00;57660.31;347668;28;1075;-65
2021/12/03 00:50:09;;;;;;;4.07;2.80;;;;;;;-144.99;100.00;57660.31;346428;28;1042;-65
2021/12/03 00:50:23;;;;;;;5.53;2.92;;;;;;;-144.99;100.00;57660.31;346239;28;1177;-65
2021/12/03 00:50:36;;;;;;;5.57;3.00;;;;;;;-144.99;100.00;57660.31;346464;28;1224;-66
2021/12/03 00:50:48;;;;;;;4.53;2.83;;;;;;;-144.99;100.00;57660.31;346497;28;1086;-65
2021/12/03 00:51:00;;;;;;;4.57;2.78;;;;;;;-144.99;100.00;57660.31;346410;28;1705;-65
2021/12/03 00:51:14;;;;;;;5.28;3.00;;;;;;;-144.99;100.00;57660.31;346513;28;1066;-64
2021/12/03 00:51:27;;;;;;;5.10;2.92;;;;;;;-144.99;100.00;57660.31;346395;28;2680;-63
2021/12/03 00:51:39;;;;;;;4.70;2.90;;;;;;;-144.99;100.00;57660.31;347619;28;2044;-65
2021/12/03 00:51:52;;;;;;;6.03;3.08;;;;;;;-144.99;100.00;57660.31;347047;28;2477;-65
2021/12/03 00:52:04;;;;;;;6.55;2.88;;;;;;;-144.99;100.00;57660.31;347828;28;1393;-66
2021/12/03 00:52:17;;;;;;;6.75;2.88;;;;;;;-144.99;100.00;57660.31;347705;28;1060;-63
2021/12/03 00:52:29;;;;;;;6.15;2.97;;;;;;;-144.99;100.00;57660.31;347548;28;1021;-66
2021/12/03 00:52:41;;;;;;;4.63;2.88;;;;;;;-144.99;100.00;57660.31;347742;28;1109;-65
2021/12/03 00:52:54;;;;;;;4.32;2.67;;;;;;;-144.99;100.00;57660.31;347663;28;1097;-65
2021/12/03 00:53:06;;;;;;;4.75;2.63;;;;;;;-144.99;100.00;57660.31;347188;28;2585;-64
2021/12/03 00:53:18;;;;;;;4.80;2.90;;;;;;;-144.99;100.00;57660.31;346451;28;1289;-64
2021/12/03 00:53:30;;;;;;;4.57;3.03;;;;;;;-144.99;100.00;57660.31;347056;28;2188;-63
2021/12/03 00:53:42;;;;;;;4.55;2.80;;;;;;;-144.99;100.00;57660.31;348094;28;1201;-65
2021/12/03 00:53:55;;;;;;;5.07;2.85;;;;;;;-144.99;100.00;57660.31;347734;28;1312;-64
2021/12/03 00:54:08;;;;;;;5.97;2.80;;;;;;;-144.99;100.00;57660.31;346527;28;1061;-65
2021/12/03 00:54:20;;;;;;;5.47;2.78;;;;;;;-144.99;100.00;57660.31;346142;28;1216;-65
2021/12/03 00:54:32;;;;;;;4.97;2.95;;;;;;;-144.99;100.00;57660.31;346038;28;1051;-65
2021/12/03 00:54:45;;;;;;;5.15;2.92;;;;;;;-144.99;100.00;57660.31;347267;28;2506;-65
2021/12/03 00:54:57;;;;;;;4.95;2.75;;;;;;;-144.99;100.00;57660.31;347737;28;1668;-64
2021/12/03 00:55:10;;;;;;;5.10;2.85;;;;;;;-144.99;100.00;57660.31;347756;28;1074;-66
2021/12/03 00:55:24;;;;;;;5.40;3.38;;;;;;;-144.99;100.00;57660.31;347813;28;2553;-65
2021/12/03 00:55:36;;;;;;;4.85;3.15;;;;;;;-144.99;100.00;57660.31;347842;28;1398;-66
2021/12/03 00:55:48;;;;;;;4.55;3.00;;;;;;;-144.99;100.00;57660.31;347444;28;1201;-63
2021/12/03 00:56:01;;;;;;;5.45;3.10;;;;;;;-144.99;100.00;57660.31;347725;28;1639;-64
2021/12/03 00:56:14;;;;;;;5.53;3.10;;;;;;;-144.99;100.00;57660.31;347877;28;1042;-64
2021/12/03 00:56:27;;;;;;;5.07;2.95;;;;;;;-144.99;100.00;57660.31;347679;28;1064;-63
2021/12/03 00:56:39;;;;;;;6.45;2.88;;;;;;;-144.99;100.00;57660.31;347813;28;1077;-64
2021/12/03 00:56:51;;;;;;;5.93;2.78;;;;;;;-144.99;100.00;57660.31;347226;28;3195;-65
2021/12/03 00:57:04;;;;;;;5.45;2.97;;;;;;;-144.99;100.00;57660.31;347489;28;1220;-65
2021/12/03 00:57:16;;;;;;;4.95;2.78;;;;;;;-144.99;100.00;57660.31;347866;28;1115;-65
2021/12/03 00:57:28;;;;;;;4.97;2.80;;;;;;;-144.99;100.00;57660.31;347895;28;1158;-65
2021/12/03 00:57:40;;;;;;;5.50;2.95;;;;;;;-144.99;100.00;57660.31;347874;28;1077;-66
2021/12/03 00:57:53;;;;;;;4.10;2.78;;;;;;;-144.99;100.00;57660.31;347288;28;2348;-64
2021/12/03 00:58:05;;;;;;;4.85;2.78;;;;;;;-144.99;100.00;57660.31;347424;28;2151;-64
2021/12/03 00:58:17;;;;;;;6.50;2.90;;;;;;;-144.99;100.00;57660.31;347914;28;1122;-65
2021/12/03 00:58:29;;;;;;;6.90;2.88;;;;;;;-144.99;100.00;57660.31;347808;28;1535;-65
2021/12/03 00:58:41;;;;;;;6.15;2.80;;;;;;;-144.99;100.00;57660.31;347667;28;1086;-66
2021/12/03 00:58:53;;;;;;;5.82;2.72;;;;;;;-144.99;100.00;57660.31;347709;28;1081;-66
2021/12/03 00:59:06;;;;;;;4.82;2.70;;;;;;;-144.99;100.00;57660.31;347712;28;2124;-65
2021/12/03 00:59:18;;;;;;;4.18;2.60;;;;;;;-144.99;100.00;57660.31;347820;28;1194;-66
2021/12/03 00:59:30;;;;;;;3.97;2.70;;;;;;;-144.99;100.00;57660.31;346683;28;2151;-64
2021/12/03 00:59:42;;;;;;;5.30;2.80;;;;;;;-144.99;100.00;57660.31;346487;28;1356;-66
2021/12/03 00:59:54;;;;;;;6.13;2.75;;;;;;;-144.99;100.00;57660.31;346502;28;2734;-65
2021/12/03 01:00:17;;;;;;;5.50;2.95;;;;;;;-144.99;100.00;57660.31;347316;28;2263;-65
2021/12/03 01:00:32;;;;;;;6.18;3.20;;;;;;;-144.99;100.00;57660.31;347697;28;1045;-65